Date,TemperatureHighF,TemperatureAvgF,TemperatureLowF,DewpointHighF,DewpointAvgF,DewpointLowF,HumidityHigh,HumidityAvg,HumidityLow,PressureMaxIn,PressureMinIn,WindSpeedMaxMPH,WindSpeedAvgMPH,GustSpeedMaxMPH,PrecipitationSumIn
2013-3-1,64.0,60.7,56.7,-99.9,-99.9,-99.9,38,38,38,29.94,29.85,14,2,14,0.00
2013-3-2,64.3,56.6,50.8,-99.9,-99.9,-99.9,38,38,38,29.99,29.91,25,6,25,0.00
2013-3-3,59.5,51.8,44.9,-99.9,-99.9,-99.9,38,38,38,30.10,29.92,24,6,24,0.00
2013-3-4,62.9,52.9,43.3,-99.9,-99.9,-99.9,38,38,38,30.17,30.07,19,3,19,0.00
2013-3-5,74.4,63.4,51.1,-99.9,-99.9,-99.9,38,38,38,30.14,30.03,20,3,20,0.00
2013-3-6,74.4,64.4,51.7,-99.9,-99.9,-99.9,38,38,38,30.05,29.91,26,7,26,0.00
2013-3-7,67.3,57.3,46.2,-99.9,-99.9,-99.9,38,38,38,30.14,30.03,18,4,18,0.00
2013-3-8,71.1,62.1,51.1,-99.9,-99.9,-99.9,38,38,38,30.17,30.07,16,2,16,0.00
2013-3-9,72.5,65.1,55.9,-99.9,-99.9,-99.9,38,38,38,30.16,30.06,16,3,16,0.00
2013-3-10,74.7,70.3,67.6,-99.9,-99.9,-99.9,38,38,38,30.12,30.04,18,4,18,0.00
2013-3-11,77.7,71.6,68.3,-99.9,-99.9,-99.9,38,38,38,30.08,29.92,20,7,21,0.00
2013-3-12,78.8,73.9,70.3,-99.9,-99.9,-99.9,38,38,38,29.96,29.86,30,8,30,0.00
2013-3-13,70.4,64.5,55.7,-99.9,-99.9,-99.9,38,38,38,30.08,29.94,22,6,22,0.00
2013-3-14,66.6,59.3,52.6,-99.9,-99.9,-99.9,38,38,38,30.17,30.05,22,6,22,0.00
2013-3-15,70.3,60.4,50.5,-99.9,-99.9,-99.9,38,38,38,30.21,30.12,15,3,15,0.00
2013-3-16,75.4,65.0,54.4,-99.9,-99.9,-99.9,38,38,38,30.16,30.05,17,3,17,0.00
2013-3-17,76.8,67.8,57.3,-99.9,-99.9,-99.9,38,38,38,30.11,29.99,21,4,21,0.00
2013-3-18,79.8,72.7,67.1,-99.9,-99.9,-99.9,38,38,38,30.03,29.91,26,7,26,0.28
2013-3-19,78.8,71.8,67.1,-99.9,-99.9,-99.9,38,38,38,29.97,29.80,31,1,31,0.00
2013-3-20,79.6,71.9,65.0,-99.9,-99.9,-99.9,38,38,38,29.93,29.76,21,3,21,0.02
2013-3-21,70.9,65.4,59.8,-99.9,-99.9,-99.9,38,38,38,29.91,29.78,18,4,18,0.00
2013-3-22,77.0,67.7,56.0,-99.9,-99.9,-99.9,38,38,38,29.97,29.86,19,3,19,0.00
2013-3-23,83.4,76.9,72.0,-99.9,-99.9,-99.9,38,38,38,29.94,29.74,27,6,27,0.00
2013-3-24,88.6,79.2,70.8,-99.9,-99.9,-99.9,38,38,38,29.84,29.62,33,8,33,0.73
2013-3-25,86.1,78.4,63.2,-99.9,-99.9,-99.9,38,38,38,29.94,29.69,18,3,18,0.00
2013-3-26,66.8,58.7,50.5,-99.9,-99.9,-99.9,38,38,38,30.16,29.94,23,7,23,0.00
2013-3-27,65.0,55.5,45.2,-99.9,-99.9,-99.9,38,38,38,30.22,30.12,17,4,17,0.00
2013-3-28,69.1,60.0,48.2,-99.9,-99.9,-99.9,38,38,38,30.23,30.14,17,3,17,0.00
2013-3-29,73.7,65.8,55.6,-99.9,-99.9,-99.9,38,38,38,30.25,30.17,14,2,14,0.00
2013-3-30,74.9,69.2,64.7,-99.9,-99.9,-99.9,38,38,38,30.23,30.13,12,1,12,0.00
2013-3-31,79.4,71.5,59.0,-99.9,-99.9,-99.9,38,38,38,30.15,30.00,21,6,21,0.00